Time;durP1;ratioP1;P1;durP2;ratioP2;P2;SDS_P1;SDS_P2;PMS_P1;PMS_P2;Temp;Humidity;BMP_temperature;BMP_pressure;BME280_temperature;BME280_humidity;BME280_pressure;Samples;Min_cycle;Max_cycle;Signal;HPM_P1;HPM_P2
2020/12/15 00:01:18;;;;;;;19.63;16.27;;;;;;;2.98;88.10;100963.16;5053499;28;20387;-79
2020/12/15 00:04:23;;;;;;;22.40;16.20;;;;;;;2.97;88.06;100969.38;5059450;28;20067;-80
2020/12/15 00:07:28;;;;;;;22.25;16.90;;;;;;;2.94;88.06;100960.72;5073392;28;20486;-80
2020/12/15 00:10:33;;;;;;;21.92;17.08;;;;;;;2.93;88.28;100957.19;5061145;28;20055;-82
2020/12/15 00:13:37;;;;;;;19.30;15.77;;;;;;;2.92;87.97;100958.13;5071274;28;20056;-82
2020/12/15 00:16:42;;;;;;;18.83;16.08;;;;;;;2.92;88.20;100954.59;5056787;28;20510;-78
2020/12/15 00:19:47;;;;;;;18.05;14.63;;;;;;;2.90;88.04;100951.16;5071563;28;20115;-82
2020/12/15 00:22:51;;;;;;;18.23;14.48;;;;;;;2.95;88.02;100954.47;5072235;28;20067;-81
2020/12/15 00:25:56;;;;;;;19.75;14.80;;;;;;;2.94;88.07;100937.69;5066067;28;20051;-82
2020/12/15 00:29:00;;;;;;;19.33;15.75;;;;;;;2.94;88.07;100940.34;5072890;28;20059;-83
2020/12/15 00:32:11;;;;;;;19.58;14.82;;;;;;;2.99;88.06;100938.31;5052432;28;20048;-84
2020/12/15 00:35:15;;;;;;;16.80;13.75;;;;;;;3.05;87.91;100937.19;5069734;28;20071;-82
2020/12/15 00:38:19;;;;;;;19.85;13.77;;;;;;;3.11;87.92;100929.78;5063234;28;20056;-84
2020/12/15 00:41:23;;;;;;;17.88;13.55;;;;;;;3.15;87.83;100917.25;5067055;28;20048;-83
2020/12/15 00:44:28;;;;;;;19.17;13.38;;;;;;;3.18;87.60;100923.28;5056129;28;20052;-80
2020/12/15 00:47:32;;;;;;;17.45;13.50;;;;;;;3.26;87.52;100931.69;5068036;28;20048;-81
2020/12/15 00:50:37;;;;;;;13.80;11.13;;;;;;;3.24;87.29;100919.44;5076496;28;20485;-83
2020/12/15 00:53:42;;;;;;;14.05;10.75;;;;;;;3.28;86.91;100921.88;5076165;28;20419;-80
2020/12/15 00:56:47;;;;;;;14.13;11.52;;;;;;;3.20;86.67;100926.72;5065564;28;20395;-82
2020/12/15 00:59:53;;;;;;;14.70;11.23;;;;;;;3.16;86.92;100925.13;5051056;28;20044;-82
2020/12/15 01:02:59;;;;;;;15.55;11.23;;;;;;;3.17;87.09;100921.53;5062723;28;20398;-82
2020/12/15 01:06:05;;;;;;;15.18;11.43;;;;;;;3.19;86.80;100914.38;5052214;28;20541;-83
2020/12/15 01:09:11;;;;;;;13.43;11.20;;;;;;;3.28;87.02;100913.06;5052397;28;20589;-79
2020/12/15 01:12:16;;;;;;;15.15;10.65;;;;;;;3.26;86.71;100921.09;5063331;28;20089;-80
2020/12/15 01:15:20;;;;;;;13.30;10.95;;;;;;;3.32;86.79;100924.38;5051892;28;20067;-81
2020/12/15 01:18:25;;;;;;;15.02;10.52;;;;;;;3.32;86.53;100927.03;5053464;28;20055;-81
2020/12/15 01:21:30;;;;;;;14.32;10.35;;;;;;;3.31;86.52;100920.84;5052196;28;20123;-83
2020/12/15 01:24:37;;;;;;;13.35;9.30;;;;;;;3.26;86.50;100923.75;5048888;28;20056;-82
2020/12/15 01:28:11;;;;;;;12.20;9.80;;;;;;;3.23;86.62;100929.19;5007306;28;20049;-81
2020/12/15 01:31:22;;;;;;;13.02;9.32;;;;;;;3.31;87.32;100941.25;5013766;28;20053;-81
2020/12/15 01:34:36;;;;;;;11.60;8.50;;;;;;;3.32;86.56;100933.19;5002097;28;20122;-81
2020/12/15 01:37:41;;;;;;;15.40;9.63;;;;;;;3.36;86.49;100923.31;5001678;28;20160;-83
2020/12/15 01:40:51;;;;;;;13.00;9.45;;;;;;;3.38;86.38;100921.44;4987047;28;20061;-83
2020/12/15 01:43:58;;;;;;;12.43;9.40;;;;;;;3.42;86.21;100915.03;5002493;28;20049;-82
2020/12/15 01:47:07;;;;;;;11.15;9.23;;;;;;;3.49;86.20;100916.44;5002329;28;20117;-83
2020/12/15 01:50:17;;;;;;;12.82;9.13;;;;;;;3.57;86.04;100906.31;5002231;28;20056;-81
2020/12/15 01:53:23;;;;;;;12.85;9.35;;;;;;;3.58;86.25;100905.41;5002105;28;20057;-83
2020/12/15 01:56:30;;;;;;;11.85;9.05;;;;;;;3.65;86.23;100906.78;5001943;28;20057;-82
2020/12/15 01:59:40;;;;;;;11.05;9.02;;;;;;;3.71;85.72;100909.97;4997253;28;20064;-81
2020/12/15 02:02:46;;;;;;;12.95;9.30;;;;;;;3.74;85.50;100915.16;4986078;28;20146;-80
2020/12/15 02:06:07;;;;;;;13.27;9.68;;;;;;;3.75;85.21;100908.88;5043012;28;20130;-81
2020/12/15 02:09:26;;;;;;;10.52;8.93;;;;;;;3.78;85.13;100910.53;5045857;28;20067;-81
2020/12/15 02:12:45;;;;;;;10.20;8.57;;;;;;;3.88;85.12;100928.56;5062338;28;20447;-78
2020/12/15 02:15:55;;;;;;;11.25;8.70;;;;;;;3.83;85.04;100911.16;5062542;28;20052;-79
2020/12/15 02:19:00;;;;;;;11.77;8.73;;;;;;;3.90;84.95;100917.88;5066905;28;20052;-81
2020/12/15 02:22:11;;;;;;;12.45;9.25;;;;;;;3.83;85.04;100911.16;5031180;28;20051;-80
2020/12/15 02:25:18;;;;;;;10.55;8.93;;;;;;;3.82;85.11;100910.31;5040906;28;20044;-81
2020/12/15 02:28:24;;;;;;;14.68;9.95;;;;;;;3.80;85.25;100893.56;5062325;28;20040;-83
2020/12/15 02:31:28;;;;;;;10.95;9.43;;;;;;;3.83;85.26;100890.78;5047053;28;20376;-80
2020/12/15 02:34:33;;;;;;;14.00;9.82;;;;;;;3.82;85.08;100889.06;5030709;28;20056;-83
2020/12/15 02:37:40;;;;;;;13.13;9.77;;;;;;;3.86;85.30;100879.13;5042373;28;20430;-82
2020/12/15 02:40:44;;;;;;;12.25;9.27;;;;;;;3.88;84.99;100895.84;5042043;28;20534;-82
2020/12/15 02:43:52;;;;;;;12.10;9.63;;;;;;;3.97;85.10;100897.19;5054894;28;20040;-81
2020/12/15 02:46:58;;;;;;;14.60;11.02;;;;;;;3.98;85.28;100902.41;5042230;28;20490;-83
2020/12/15 02:50:05;;;;;;;14.57;10.05;;;;;;;3.97;85.22;100898.03;5042499;28;20072;-84
2020/12/15 02:53:12;;;;;;;13.98;9.88;;;;;;;3.93;85.10;100899.13;5042242;28;20410;-81
2020/12/15 02:56:25;;;;;;;13.82;9.80;;;;;;;3.94;85.68;100901.72;5041358;28;20048;-80
2020/12/15 02:59:30;;;;;;;13.13;10.15;;;;;;;3.94;85.49;100912.34;5030157;28;20044;-83
2020/12/15 03:02:34;;;;;;;11.80;9.45;;;;;;;4.04;85.31;100909.19;5030692;28;20059;-81
2020/12/15 03:05:40;;;;;;;10.07;8.23;;;;;;;4.08;85.18;100906.28;5042214;28;20071;-80
2020/12/15 03:08:45;;;;;;;10.95;8.73;;;;;;;4.04;85.34;100898.56;5041888;28;20404;-81
2020/12/15 03:11:49;;;;;;;11.45;9.00;;;;;;;4.00;85.49;100900.50;5042114;28;20072;-81
2020/12/15 03:15:03;;;;;;;10.95;8.02;;;;;;;3.97;84.92;100906.00;5041632;28;20056;-83
2020/12/15 03:18:08;;;;;;;10.75;8.00;;;;;;;3.97;84.77;100895.38;5030200;28;20044;-81
2020/12/15 03:21:16;;;;;;;11.40;8.43;;;;;;;4.01;85.11;100907.56;5030484;28;20494;-81
2020/12/15 03:24:20;;;;;;;11.15;8.85;;;;;;;4.03;85.21;100900.34;5041955;28;20051;-81
2020/12/15 03:27:27;;;;;;;12.50;8.20;;;;;;;4.03;85.14;100897.69;5041548;28;20040;-83
2020/12/15 03:30:33;;;;;;;9.75;8.10;;;;;;;4.08;84.79;100905.44;5030193;28;20056;-84
2020/12/15 03:33:38;;;;;;;10.43;7.85;;;;;;;4.00;85.12;100900.50;5041361;28;20494;-80
2020/12/15 03:36:44;;;;;;;10.95;8.23;;;;;;;3.99;85.21;100890.84;5041701;28;20060;-81
2020/12/15 03:39:49;;;;;;;9.18;7.63;;;;;;;4.02;85.54;100896.00;5041161;28;20483;-81
2020/12/15 03:43:12;;;;;;;10.00;7.85;;;;;;;4.03;85.16;100892.41;5041376;28;20051;-82
2020/12/15 03:46:29;;;;;;;11.05;8.10;;;;;;;4.04;85.31;100891.47;5041291;28;20048;-83
2020/12/15 03:49:38;;;;;;;12.18;7.95;;;;;;;4.04;85.34;100903.88;5041555;28;20052;-80
2020/12/15 03:52:43;;;;;;;10.35;7.05;;;;;;;4.05;84.92;100906.44;5041213;28;20491;-81
2020/12/15 03:55:53;;;;;;;8.52;7.15;;;;;;;4.04;85.01;100894.13;5041113;28;20392;-82
2020/12/15 03:58:57;;;;;;;8.55;7.43;;;;;;;4.06;85.11;100894.91;5017853;28;20541;-83
2020/12/15 04:02:02;;;;;;;12.57;8.43;;;;;;;4.09;84.92;100881.47;5041131;28;20048;-81
2020/12/15 04:05:08;;;;;;;10.40;7.72;;;;;;;4.10;84.59;100877.84;5040967;28;20052;-82
2020/12/15 04:08:12;;;;;;;9.85;7.43;;;;;;;4.17;84.87;100876.59;5041091;28;20095;-84
2020/12/15 04:11:16;;;;;;;10.38;8.05;;;;;;;4.17;84.76;100881.91;5045464;28;20052;-81
2020/12/15 04:14:26;;;;;;;8.60;7.20;;;;;;;4.22;84.87;100887.00;5045204;28;20407;-82
2020/12/15 04:17:30;;;;;;;9.30;7.03;;;;;;;4.24;84.83;100893.06;5045262;28;20072;-83
2020/12/15 04:20:35;;;;;;;10.30;7.15;;;;;;;4.27;84.67;100893.75;5044894;28;20048;-82
2020/12/15 04:23:40;;;;;;;9.05;7.40;;;;;;;4.28;84.91;100894.59;5044965;28;20047;-81
2020/12/15 04:26:46;;;;;;;9.30;6.88;;;;;;;4.28;84.20;100892.81;5044916;28;20059;-81
2020/12/15 04:29:51;;;;;;;11.25;7.43;;;;;;;4.30;84.86;100885.63;5032738;28;20051;-82
2020/12/15 04:33:00;;;;;;;9.93;8.00;;;;;;;4.25;84.96;100895.63;5044685;28;20407;-82
2020/12/15 04:36:16;;;;;;;9.85;7.60;;;;;;;4.23;85.24;100900.19;5044414;28;20048;-80
2020/12/15 04:39:20;;;;;;;11.57;7.90;;;;;;;4.20;85.51;100908.31;5044629;28;20051;-80
2020/12/15 04:42:26;;;;;;;9.63;7.82;;;;;;;4.28;85.37;100919.38;5033754;28;20052;-83
2020/12/15 04:45:30;;;;;;;8.95;7.75;;;;;;;4.32;85.32;100917.44;5044795;28;20052;-80
2020/12/15 04:48:45;;;;;;;11.25;7.22;;;;;;;4.30;85.58;100912.19;5044743;28;20380;-80
2020/12/15 04:52:04;;;;;;;9.82;8.02;;;;;;;4.27;85.61;100912.34;5044907;28;20060;-83
2020/12/15 04:55:21;;;;;;;9.95;7.70;;;;;;;4.29;85.70;100909.63;5044724;28;20048;-81
2020/12/15 04:58:26;;;;;;;10.93;8.73;;;;;;;4.29;85.70;100904.31;5035232;28;20056;-83
2020/12/15 05:01:35;;;;;;;10.60;7.55;;;;;;;4.29;85.73;100906.97;5036609;28;20056;-81
2020/12/15 05:04:49;;;;;;;11.18;8.98;;;;;;;4.26;85.85;100905.34;5035707;28;20060;-82
2020/12/15 05:08:00;;;;;;;11.15;7.88;;;;;;;4.25;86.04;100911.56;5024468;28;20061;-80
2020/12/15 05:11:15;;;;;;;11.25;8.75;;;;;;;4.26;86.28;100907.13;5035672;28;20048;-82
2020/12/15 05:14:34;;;;;;;9.48;8.20;;;;;;;4.28;86.52;100918.53;5024119;28;20060;-82
2020/12/15 05:17:39;;;;;;;11.32;8.65;;;;;;;4.29;86.77;100914.94;5035521;28;20053;-82
2020/12/15 05:20:55;;;;;;;10.63;8.35;;;;;;;4.33;86.68;100912.03;5034915;28;20072;-80
2020/12/15 05:24:10;;;;;;;10.25;8.40;;;;;;;4.31;86.63;100916.56;5035641;28;20107;-80
2020/12/15 05:27:31;;;;;;;10.75;8.05;;;;;;;4.31;86.88;100924.56;5014058;28;20052;-82
2020/12/15 05:30:59;;;;;;;11.75;9.60;;;;;;;4.30;86.83;100928.13;5025736;28;20113;-83
2020/12/15 05:34:21;;;;;;;11.23;9.43;;;;;;;4.28;86.26;100927.38;5035948;28;20056;-83
2020/12/15 05:37:45;;;;;;;14.35;10.13;;;;;;;4.28;86.35;100935.34;5036261;28;20093;-82
2020/12/15 05:41:13;;;;;;;10.55;8.82;;;;;;;4.26;85.77;100931.03;5035293;28;20052;-82
2020/12/15 05:44:28;;;;;;;12.30;8.93;;;;;;;4.31;85.85;100921.88;5034860;28;20056;-81
2020/12/15 05:47:38;;;;;;;10.45;8.40;;;;;;;4.33;85.83;100922.66;5035035;28;20580;-81
2020/12/15 05:50:43;;;;;;;11.85;8.52;;;;;;;4.36;85.63;100922.50;5034932;28;20040;-79
2020/12/15 05:53:48;;;;;;;13.13;9.30;;;;;;;4.39;85.74;100927.66;5035170;28;20396;-83
2020/12/15 05:57:05;;;;;;;;;;;;;;;4.31;85.68;100929.00;5038054;28;20057;-79
2020/12/15 06:00:10;;;;;;;12.65;8.10;;;;;;;4.31;85.84;100913.91;5043666;28;19916;-83
2020/12/15 06:03:19;;;;;;;13.43;8.27;;;;;;;4.30;86.11;100925.47;5055638;28;20056;-80
2020/12/15 06:06:24;;;;;;;135.65;88.85;;;;;;;4.19;86.73;100933.16;5042789;28;20048;-80
2020/12/15 06:09:30;;;;;;;50.90;34.53;;;;;;;4.11;87.10;100939.81;5055510;28;20049;-80
2020/12/15 06:12:34;;;;;;;18.35;12.75;;;;;;;4.13;87.41;100933.47;5043190;28;20059;-81
2020/12/15 06:15:39;;;;;;;11.27;9.13;;;;;;;4.17;87.39;100921.78;5043173;28;20051;-81
2020/12/15 06:18:44;;;;;;;12.15;8.48;;;;;;;4.18;87.63;100942.06;5043254;28;20047;-79
2020/12/15 06:21:52;;;;;;;14.55;11.82;;;;;;;4.19;87.36;100935.81;5055198;28;20389;-79
2020/12/15 06:24:58;;;;;;;14.98;10.35;;;;;;;4.11;87.80;100940.66;5055194;28;20052;-80
2020/12/15 06:28:04;;;;;;;13.80;10.30;;;;;;;4.07;88.07;100952.41;5042679;28;20506;-82
2020/12/15 06:31:19;;;;;;;15.98;11.48;;;;;;;4.07;87.95;100944.44;5042655;28;20495;-82
2020/12/15 06:34:27;;;;;;;16.02;11.15;;;;;;;4.15;87.98;100944.88;5054922;28;20048;-84
2020/12/15 06:37:35;;;;;;;17.25;12.75;;;;;;;4.22;88.23;100940.94;5054852;28;20071;-82
2020/12/15 06:40:45;;;;;;;19.58;12.95;;;;;;;4.26;87.61;100937.22;5054936;28;20048;-83
2020/12/15 06:43:50;;;;;;;17.35;13.05;;;;;;;4.31;87.78;100929.88;5054900;28;20052;-78
2020/12/15 06:46:54;;;;;;;17.50;12.98;;;;;;;4.38;87.76;100930.38;5042569;28;20478;-82
2020/12/15 06:50:12;;;;;;;16.80;12.30;;;;;;;4.41;87.31;100931.09;5054248;28;20411;-82
2020/12/15 06:53:19;;;;;;;17.70;13.52;;;;;;;4.52;87.21;100912.75;5054437;28;20111;-84
2020/12/15 06:56:26;;;;;;;19.75;14.98;;;;;;;4.53;87.03;100895.88;5054265;28;20051;-76
2020/12/15 06:59:39;;;;;;;21.02;15.75;;;;;;;4.47;87.28;100932.53;5053927;28;20384;-75
2020/12/15 07:02:50;;;;;;;23.17;16.30;;;;;;;4.43;87.29;100944.28;5054132;28;20056;-77
2020/12/15 07:06:12;;;;;;;23.45;18.48;;;;;;;4.42;87.59;100922.16;5067985;28;20051;-80
2020/12/15 07:09:18;;;;;;;28.63;20.38;;;;;;;4.49;87.36;100955.44;5060076;28;20047;-83
2020/12/15 07:12:23;;;;;;;34.78;20.17;;;;;;;4.54;87.21;100953.41;5073219;28;20395;-79
2020/12/15 07:15:29;;;;;;;29.33;19.20;;;;;;;4.58;87.27;100981.56;5061190;28;20056;-80
2020/12/15 07:18:35;;;;;;;28.83;18.83;;;;;;;4.63;87.49;100993.75;5073081;28;20055;-79
2020/12/15 07:21:40;;;;;;;24.17;17.13;;;;;;;4.66;87.18;100969.66;5073435;28;20063;-81
2020/12/15 07:24:45;;;;;;;25.00;17.33;;;;;;;4.69;87.10;100978.31;5073189;28;20054;-81
2020/12/15 07:27:49;;;;;;;23.90;17.05;;;;;;;4.67;86.69;100985.50;5039833;28;20403;-81
2020/12/15 07:30:53;;;;;;;23.85;17.02;;;;;;;4.78;86.62;101006.22;5040949;28;20495;-81
2020/12/15 07:34:24;;;;;;;21.88;15.80;;;;;;;4.85;86.69;101012.91;5042923;28;20075;-84
2020/12/15 07:37:30;;;;;;;25.35;18.17;;;;;;;5.00;88.17;101004.13;5061523;28;20043;-85
2020/12/15 07:40:34;;;;;;;24.70;16.75;;;;;;;5.21;88.27;101014.44;5072429;28;20047;-84
2020/12/15 07:43:38;;;;;;;23.63;16.90;;;;;;;5.24;87.21;100997.44;5054773;28;20044;-84
2020/12/15 07:46:47;;;;;;;25.70;17.23;;;;;;;5.29;86.28;100982.06;5040537;28;20048;-85
2020/12/15 07:49:56;;;;;;;23.15;16.38;;;;;;;5.25;84.99;100964.56;5052816;28;20396;-85
2020/12/15 07:53:09;;;;;;;22.52;16.67;;;;;;;5.30;84.62;100983.81;5053645;28;20044;-83
2020/12/15 07:56:14;;;;;;;20.17;15.65;;;;;;;5.28;84.35;100992.81;5062188;28;20059;-84
2020/12/15 07:59:19;;;;;;;20.65;15.30;;;;;;;5.35;84.08;101003.03;5016098;28;20072;-77
2020/12/15 08:02:25;;;;;;;20.58;15.00;;;;;;;5.43;83.76;101000.78;5013087;28;20057;-84
2020/12/15 08:05:29;;;;;;;19.00;15.25;;;;;;;5.60;83.34;101018.50;5013111;28;20052;-81
2020/12/15 08:08:35;;;;;;;21.55;15.55;;;;;;;5.73;82.81;101019.47;5024204;28;20140;-84
2020/12/15 08:11:46;;;;;;;20.73;14.98;;;;;;;5.85;82.25;101011.69;5017681;28;20060;-82
2020/12/15 08:14:51;;;;;;;20.02;13.68;;;;;;;5.93;81.69;101015.69;5032822;28;20056;-81
2020/12/15 08:17:58;;;;;;;16.52;13.25;;;;;;;5.96;81.16;101013.72;5033075;28;20057;-82
2020/12/15 08:21:04;;;;;;;20.75;13.75;;;;;;;6.03;81.38;101012.41;5018735;28;20049;-83
2020/12/15 08:24:11;;;;;;;29.90;13.88;;;;;;;6.09;81.04;101024.53;5013221;28;20076;-79
2020/12/15 08:27:16;;;;;;;15.57;12.38;;;;;;;6.09;80.64;101035.19;5013048;28;20045;-83
2020/12/15 08:30:21;;;;;;;19.75;13.10;;;;;;;6.16;80.63;101025.88;5012621;28;20048;-83
2020/12/15 08:33:28;;;;;;;19.73;13.55;;;;;;;6.16;80.43;101024.09;5012779;28;20049;-81
2020/12/15 08:36:41;;;;;;;23.75;16.48;;;;;;;6.13;80.95;101042.06;5000555;28;20053;-83
2020/12/15 08:39:46;;;;;;;20.52;16.83;;;;;;;6.09;81.46;101045.84;5012896;28;20049;-82
2020/12/15 08:42:58;;;;;;;21.63;16.42;;;;;;;6.06;81.39;101027.38;5012530;28;20057;-83
2020/12/15 08:46:13;;;;;;;23.85;17.30;;;;;;;6.05;81.85;101017.69;4990359;28;20049;-80
2020/12/15 08:49:18;;;;;;;24.35;17.67;;;;;;;6.13;82.29;101018.06;5007002;28;20464;-82
2020/12/15 08:52:23;;;;;;;22.52;18.08;;;;;;;6.20;81.96;101019.41;4989244;28;20393;-80
2020/12/15 08:55:27;;;;;;;23.27;19.45;;;;;;;6.23;81.71;101030.78;5002152;28;20060;-82
2020/12/15 08:58:34;;;;;;;26.05;20.05;;;;;;;6.27;81.86;101055.44;5027611;28;20056;-79
2020/12/15 09:01:39;;;;;;;25.60;19.98;;;;;;;6.43;81.30;101064.25;5031837;28;20396;-82
2020/12/15 09:04:44;;;;;;;27.08;20.52;;;;;;;6.45;81.40;101065.00;5032238;28;20067;-82
2020/12/15 09:07:48;;;;;;;28.90;17.60;;;;;;;6.41;80.90;101066.16;5031695;28;20052;-80
2020/12/15 09:10:55;;;;;;;17.90;15.23;;;;;;;6.39;81.21;101065.38;5032049;28;20519;-80
2020/12/15 09:14:05;;;;;;;18.67;14.35;;;;;;;6.41;81.52;101048.34;5021174;28;20491;-77
2020/12/15 09:17:09;;;;;;;19.77;14.20;;;;;;;6.52;81.70;101050.34;5040692;28;20044;-80
2020/12/15 09:20:25;;;;;;;19.35;14.10;;;;;;;6.45;81.43;101057.00;5031759;28;20040;-79
2020/12/15 09:23:29;;;;;;;18.05;14.48;;;;;;;6.56;81.36;101049.25;5023362;28;20049;-79
2020/12/15 09:26:38;;;;;;;23.40;16.27;;;;;;;6.78;81.10;101046.13;5038797;28;20404;-80
2020/12/15 09:29:42;;;;;;;24.50;16.17;;;;;;;6.98;80.36;101032.41;5030562;28;20052;-78
2020/12/15 09:32:47;;;;;;;24.52;16.80;;;;;;;7.29;79.44;101016.16;5021450;28;20040;-79
2020/12/15 09:35:52;;;;;;;23.50;17.75;;;;;;;7.53;77.91;101008.41;5030924;28;20060;-82
2020/12/15 09:39:02;;;;;;;24.75;17.92;;;;;;;7.66;77.43;101036.91;5027402;28;20057;-85
2020/12/15 09:42:08;;;;;;;22.67;18.52;;;;;;;7.65;77.15;101023.66;5023094;28;20048;-81
2020/12/15 09:45:12;;;;;;;27.70;20.15;;;;;;;7.58;77.65;101007.13;5022959;28;20072;-76
2020/12/15 09:48:17;;;;;;;25.10;20.83;;;;;;;7.60;77.81;101007.06;5024482;28;20052;-82
2020/12/15 09:51:21;;;;;;;23.20;20.70;;;;;;;7.59;78.14;101011.53;5031244;28;20075;-82
2020/12/15 09:54:26;;;;;;;26.25;22.25;;;;;;;7.47;77.91;101011.47;5042395;28;20051;-82
2020/12/15 09:57:30;;;;;;;32.67;22.45;;;;;;;7.52;77.83;101020.03;5018383;28;20511;-81
2020/12/15 10:00:35;;;;;;;31.60;23.83;;;;;;;7.52;77.63;101015.56;5031543;28;20411;-83
2020/12/15 10:03:41;;;;;;;33.55;24.10;;;;;;;7.59;78.01;101021.34;5031056;28;20048;-84
2020/12/15 10:06:48;;;;;;;29.60;24.35;;;;;;;7.62;78.20;101042.53;5038140;28;20052;-81
2020/12/15 10:09:57;;;;;;;32.72;25.48;;;;;;;7.71;77.65;101058.84;5030994;28;20048;-82
2020/12/15 10:13:01;;;;;;;30.17;24.58;;;;;;;7.88;77.16;101049.72;5030783;28;20060;-79
2020/12/15 10:16:05;;;;;;;31.83;25.55;;;;;;;8.02;76.38;101064.84;5018092;28;20060;-79
2020/12/15 10:19:11;;;;;;;29.52;24.00;;;;;;;8.11;75.93;101050.88;5035226;28;20056;-79
2020/12/15 10:22:15;;;;;;;32.17;24.08;;;;;;;8.24;75.04;101031.25;5046396;28;20052;-80
2020/12/15 10:25:20;;;;;;;27.30;23.73;;;;;;;8.42;74.44;101023.78;5019107;28;20056;-79
2020/12/15 10:28:25;;;;;;;30.13;22.88;;;;;;;8.43;74.72;101015.69;5047441;28;20044;-80
2020/12/15 10:31:29;;;;;;;26.13;22.20;;;;;;;8.48;74.52;101021.56;5050472;28;20043;-80
2020/12/15 10:34:33;;;;;;;24.27;20.90;;;;;;;8.50;74.71;101014.28;5049923;28;20071;-80
2020/12/15 10:37:38;;;;;;;28.08;20.45;;;;;;;8.59;74.21;101020.00;5050360;28;20048;-80
2020/12/15 10:40:42;;;;;;;23.48;19.77;;;;;;;8.67;73.84;101028.31;5049933;28;20059;-80
2020/12/15 10:43:46;;;;;;;24.65;21.42;;;;;;;8.79;73.28;101011.44;5050612;28;20052;-79
2020/12/15 10:46:50;;;;;;;24.33;20.42;;;;;;;9.10;72.30;101019.00;5050388;28;20048;-79
2020/12/15 10:49:54;;;;;;;26.13;21.52;;;;;;;9.21;71.75;101016.41;5048392;28;20051;-77
2020/12/15 10:52:59;;;;;;;25.65;21.38;;;;;;;9.20;71.17;101019.19;5020469;28;20054;-80
2020/12/15 10:56:04;;;;;;;28.25;22.33;;;;;;;9.23;70.93;101014.50;5017083;28;20051;-80
2020/12/15 10:59:08;;;;;;;28.80;21.65;;;;;;;9.20;71.45;101013.84;4992584;28;20107;-79
2020/12/15 11:02:15;;;;;;;26.38;22.80;;;;;;;9.09;71.01;101009.25;5009071;28;20499;-79
2020/12/15 11:05:20;;;;;;;28.75;23.38;;;;;;;9.11;70.96;101007.31;5001672;28;20049;-80
2020/12/15 11:08:25;;;;;;;27.20;22.73;;;;;;;9.18;71.01;101009.44;4998361;28;20127;-79
2020/12/15 11:11:30;;;;;;;28.13;22.98;;;;;;;9.18;70.52;101000.56;5010023;28;20072;-80
2020/12/15 11:14:35;;;;;;;28.83;22.42;;;;;;;9.11;70.47;100994.78;5000435;28;20044;-79
2020/12/15 11:17:39;;;;;;;26.63;22.60;;;;;;;9.16;71.04;100989.97;5009000;28;20049;-78
2020/12/15 11:20:43;;;;;;;30.60;22.27;;;;;;;9.14;70.75;100983.00;5009443;28;20511;-78
2020/12/15 11:23:47;;;;;;;23.25;19.55;;;;;;;9.11;71.11;100977.84;5020634;28;20064;-79
2020/12/15 11:26:52;;;;;;;28.20;19.17;;;;;;;9.08;70.63;100978.97;5009888;28;20052;-80
2020/12/15 11:29:57;;;;;;;26.88;18.63;;;;;;;9.04;71.16;100976.59;5009899;28;20052;-79
2020/12/15 11:33:01;;;;;;;22.77;20.23;;;;;;;9.02;71.06;100971.34;5009854;28;20400;-79
2020/12/15 11:36:06;;;;;;;21.23;18.35;;;;;;;9.03;71.26;100969.53;5009653;28;20056;-80
2020/12/15 11:39:10;;;;;;;21.20;18.73;;;;;;;9.00;71.36;100980.47;5021146;28;20060;-80
2020/12/15 11:42:15;;;;;;;22.13;19.73;;;;;;;8.92;71.68;100985.50;5020592;28;20053;-80
2020/12/15 11:45:23;;;;;;;21.27;18.42;;;;;;;8.94;71.23;100991.59;5020918;28;20404;-81
2020/12/15 11:48:27;;;;;;;24.92;19.33;;;;;;;8.89;72.02;100972.31;5009471;28;20511;-79
2020/12/15 11:51:32;;;;;;;19.83;16.63;;;;;;;8.78;72.04;100978.44;5020880;28;20048;-80
2020/12/15 11:54:39;;;;;;;24.80;16.08;;;;;;;8.82;72.39;100976.41;5020418;28;20052;-80
2020/12/15 11:57:43;;;;;;;21.83;16.02;;;;;;;8.86;72.03;100977.91;5009902;28;20117;-79
2020/12/15 12:00:48;;;;;;;22.10;16.17;;;;;;;8.87;72.32;100975.13;5001138;28;20045;-81
2020/12/15 12:03:52;;;;;;;20.58;16.15;;;;;;;8.91;71.83;100981.94;5019714;28;20049;-80
2020/12/15 12:06:57;;;;;;;19.13;16.13;;;;;;;8.90;71.96;100966.00;5031772;28;20068;-79
2020/12/15 12:10:03;;;;;;;19.65;16.95;;;;;;;8.89;72.18;100975.00;5020235;28;20048;-79
2020/12/15 12:13:08;;;;;;;20.63;16.05;;;;;;;8.88;72.69;100976.84;5020724;28;20073;-79
2020/12/15 12:16:13;;;;;;;21.80;16.45;;;;;;;8.87;73.13;100972.44;5031524;28;20049;-79
2020/12/15 12:19:17;;;;;;;20.02;16.48;;;;;;;8.88;73.44;100967.94;5020258;28;20064;-80
2020/12/15 12:22:22;;;;;;;19.00;15.68;;;;;;;8.82;73.46;100961.19;5030835;28;20060;-79
2020/12/15 12:25:26;;;;;;;19.50;16.52;;;;;;;8.83;73.37;100954.91;5024138;28;20052;-80
2020/12/15 12:28:32;;;;;;;22.02;16.00;;;;;;;8.90;73.58;100957.97;5022479;28;20048;-78
2020/12/15 12:31:37;;;;;;;21.85;16.73;;;;;;;8.91;73.60;100965.06;4992742;28;20057;-80
2020/12/15 12:34:41;;;;;;;20.30;15.85;;;;;;;8.94;73.46;100959.47;5025870;28;20598;-80
2020/12/15 12:37:45;;;;;;;20.65;17.45;;;;;;;8.97;72.80;100965.47;5004247;28;20119;-79
2020/12/15 12:40:49;;;;;;;20.20;17.55;;;;;;;9.02;72.66;100978.53;5004702;28;20401;-80
2020/12/15 12:43:54;;;;;;;23.85;18.58;;;;;;;9.02;72.32;100974.03;5011965;28;20068;-79
2020/12/15 12:46:59;;;;;;;23.42;19.52;;;;;;;9.11;72.35;100977.84;5012996;28;20044;-80
2020/12/15 12:50:05;;;;;;;23.40;19.77;;;;;;;9.14;71.81;100985.69;5012677;28;20048;-80
2020/12/15 12:53:10;;;;;;;26.58;19.85;;;;;;;9.22;71.68;100979.78;5035241;28;20376;-80
2020/12/15 12:56:16;;;;;;;26.55;21.67;;;;;;;9.27;71.30;100981.16;5024132;28;20056;-78
2020/12/15 12:59:21;;;;;;;26.90;21.83;;;;;;;9.30;70.32;100972.91;5021487;28;20385;-81
2020/12/15 13:02:26;;;;;;;25.02;22.02;;;;;;;9.29;70.72;100956.91;5012789;28;20048;-80
2020/12/15 13:05:31;;;;;;;25.33;21.70;;;;;;;9.37;70.37;100957.22;5006007;28;20072;-78
2020/12/15 13:08:35;;;;;;;24.20;21.60;;;;;;;9.44;70.20;100969.19;5003814;28;20045;-77
2020/12/15 13:11:40;;;;;;;26.98;21.02;;;;;;;9.49;69.81;100962.53;5016449;28;20052;-77
2020/12/15 13:14:45;;;;;;;25.05;22.33;;;;;;;9.50;69.73;100960.72;4999451;28;20061;-79
2020/12/15 13:17:49;;;;;;;23.70;21.23;;;;;;;9.50;70.44;100971.44;4999342;28;20052;-80
2020/12/15 13:20:54;;;;;;;24.55;21.45;;;;;;;9.40;70.39;100965.91;5003448;28;20049;-80
2020/12/15 13:23:58;;;;;;;26.75;22.67;;;;;;;9.35;70.84;100964.53;5002756;28;20048;-76
2020/12/15 13:27:03;;;;;;;28.33;23.30;;;;;;;9.35;70.90;100967.22;5003433;28;20048;-80
2020/12/15 13:30:08;;;;;;;27.58;23.00;;;;;;;9.28;71.30;100966.81;5030061;28;20052;-79
2020/12/15 13:33:12;;;;;;;25.60;21.75;;;;;;;9.30;71.82;100972.03;5000886;28;20052;-78
2020/12/15 13:36:16;;;;;;;24.27;21.70;;;;;;;9.36;71.33;100980.47;5001122;28;20048;-78
2020/12/15 13:39:21;;;;;;;24.30;21.65;;;;;;;9.44;70.49;100977.25;5016809;28;20531;-78
2020/12/15 13:42:25;;;;;;;24.08;21.58;;;;;;;9.52;70.17;100982.91;5019430;28;20504;-81
2020/12/15 13:45:29;;;;;;;25.02;22.38;;;;;;;9.43;70.68;100975.56;5010355;28;20052;-80
2020/12/15 13:48:34;;;;;;;25.50;22.80;;;;;;;9.38;70.32;100975.84;5010803;28;20416;-80
2020/12/15 13:51:39;;;;;;;24.45;21.83;;;;;;;9.36;70.84;100977.78;5022063;28;20045;-78
2020/12/15 13:54:44;;;;;;;28.38;23.60;;;;;;;9.33;71.29;100983.41;5010917;28;20045;-79
2020/12/15 13:57:48;;;;;;;25.83;23.10;;;;;;;9.23;71.18;100985.03;5020372;28;20048;-79
2020/12/15 14:00:52;;;;;;;29.77;23.98;;;;;;;9.12;71.66;100980.44;5031148;28;20044;-77
2020/12/15 14:03:56;;;;;;;26.55;23.75;;;;;;;9.13;72.13;100992.84;5030875;28;20048;-78
2020/12/15 14:07:01;;;;;;;27.20;23.88;;;;;;;9.11;72.40;101000.13;5030999;28;20063;-80
2020/12/15 14:10:07;;;;;;;30.08;24.33;;;;;;;9.08;72.38;101003.06;5030873;28;20498;-78
2020/12/15 14:13:12;;;;;;;30.92;26.40;;;;;;;9.04;72.51;101006.03;5024068;28;20403;-82
2020/12/15 14:16:17;;;;;;;28.95;25.70;;;;;;;8.99;73.26;101001.03;5011455;28;20060;-81
2020/12/15 14:19:21;;;;;;;29.33;26.23;;;;;;;8.95;73.41;100998.66;5026335;28;20051;-80
2020/12/15 14:22:25;;;;;;;31.60;26.33;;;;;;;8.93;73.20;101003.28;5029999;28;20060;-79